createdAt,value
2022-09-13T00:00:57.460Z,65.58
2022-09-13T00:01:57.417Z,68.80
2022-09-13T00:02:57.384Z,68.16
2022-09-13T00:03:57.371Z,70.42
2022-09-13T00:04:57.361Z,68.80
2022-09-13T00:05:57.372Z,68.00
2022-09-13T00:06:57.348Z,68.16
2022-09-13T00:07:57.326Z,69.45
2022-09-13T00:08:57.330Z,69.77
2022-09-13T00:09:57.311Z,66.23
2022-09-13T00:10:57.321Z,69.45
2022-09-13T00:11:57.282Z,67.51
2022-09-13T00:12:57.289Z,66.71
2022-09-13T00:13:57.274Z,70.58
2022-09-13T00:14:57.258Z,68.64
2022-09-13T00:15:57.275Z,69.13
2022-09-13T00:16:57.244Z,68.16
2022-09-13T00:17:57.235Z,68.64
2022-09-13T00:18:57.226Z,67.03
2022-09-13T00:19:57.204Z,69.45
2022-09-13T00:20:57.220Z,66.87
2022-09-13T00:21:57.185Z,66.39
2022-09-13T00:22:58.184Z,69.77
2022-09-13T00:23:57.202Z,65.42
2022-09-13T00:24:57.167Z,68.16
2022-09-13T00:25:57.173Z,66.23
2022-09-13T00:26:57.143Z,64.61
2022-09-13T00:27:57.124Z,67.68
2022-09-13T00:28:57.124Z,66.06
2022-09-13T00:29:57.114Z,68.32
2022-09-13T00:30:57.138Z,67.35
2022-09-13T00:31:57.181Z,64.94
2022-09-13T00:32:57.089Z,66.87
2022-09-13T00:33:57.082Z,67.51
2022-09-13T00:34:57.066Z,71.54
2022-09-13T00:35:57.064Z,64.61
2022-09-13T00:36:57.041Z,65.10
2022-09-13T00:37:57.036Z,66.55
2022-09-13T00:38:57.023Z,69.93
2022-09-13T00:39:57.037Z,65.58
2022-09-13T00:40:57.008Z,62.84
2022-09-13T00:41:57.020Z,62.20
2022-09-13T00:42:56.983Z,68.00
2022-09-13T00:43:56.983Z,63.00
2022-09-13T00:44:56.965Z,63.97
2022-09-13T00:45:57.025Z,66.39
2022-09-13T00:46:56.956Z,63.16
2022-09-13T00:47:56.927Z,63.97
2022-09-13T00:48:56.931Z,64.29
2022-09-13T00:49:56.924Z,66.87
2022-09-13T00:50:56.907Z,65.42
2022-09-13T00:51:56.910Z,64.13
2022-09-13T00:52:56.891Z,65.10
2022-09-13T00:53:56.882Z,64.94
2022-09-13T00:54:56.863Z,64.78
2022-09-13T00:55:56.864Z,65.42
2022-09-13T00:56:56.863Z,64.94
2022-09-13T00:57:56.840Z,66.06
2022-09-13T00:58:57.687Z,66.39
2022-09-13T00:59:56.805Z,65.10
2022-09-13T01:00:56.834Z,67.35
2022-09-13T01:01:56.870Z,64.29
2022-09-13T01:02:56.789Z,62.68
2022-09-13T01:03:56.857Z,63.65
2022-09-13T01:04:56.762Z,64.29
2022-09-13T01:05:56.759Z,62.84
2022-09-13T01:06:56.752Z,66.06
2022-09-13T01:07:56.723Z,71.70
2022-09-13T01:08:56.726Z,62.68
2022-09-13T01:09:56.717Z,64.29
2022-09-13T01:10:56.703Z,64.61
2022-09-13T01:11:56.704Z,68.16
2022-09-13T01:12:56.678Z,63.81
2022-09-13T01:13:56.671Z,65.58
2022-09-13T01:14:56.668Z,64.45
2022-09-13T01:15:56.652Z,64.29
2022-09-13T01:16:56.687Z,66.06
2022-09-13T01:17:56.633Z,64.61
2022-09-13T01:18:57.625Z,66.06
2022-09-13T01:19:56.676Z,66.39
2022-09-13T01:20:56.607Z,66.06
2022-09-13T01:21:56.623Z,68.32
2022-09-13T01:22:56.592Z,63.33
2022-09-13T01:23:56.575Z,63.49
2022-09-13T01:24:56.558Z,64.78
2022-09-13T01:25:56.556Z,64.61
2022-09-13T01:26:56.571Z,63.97
2022-09-13T01:27:56.528Z,63.49
2022-09-13T01:28:56.529Z,62.20
2022-09-13T01:29:56.548Z,63.33
2022-09-13T01:33:41.620Z,62.52
2022-09-13T01:34:41.606Z,64.94
2022-09-13T01:35:41.596Z,65.90
2022-09-13T01:36:41.604Z,66.06
2022-09-13T01:37:41.584Z,64.78
2022-09-13T01:38:41.560Z,65.58
2022-09-13T01:39:41.565Z,66.39
2022-09-13T01:40:41.541Z,65.10
2022-09-13T01:41:42.676Z,65.26
2022-09-13T01:42:42.644Z,63.49
2022-09-13T01:43:42.715Z,63.97
2022-09-13T01:44:42.613Z,65.10
2022-09-13T01:45:42.638Z,65.42
2022-09-13T01:46:42.618Z,63.97
2022-09-13T01:47:42.588Z,63.49
2022-09-13T01:48:42.584Z,63.16
2022-09-13T01:49:42.766Z,62.52
2022-09-13T01:50:42.557Z,64.61
2022-09-13T01:51:42.573Z,63.33
2022-09-13T01:52:42.534Z,62.20
2022-09-13T01:53:42.612Z,64.78
2022-09-13T01:54:42.523Z,65.58
2022-09-13T01:55:42.511Z,63.33
2022-09-13T01:56:42.518Z,62.36
2022-09-13T01:57:42.493Z,66.39
2022-09-13T01:58:42.484Z,63.65
2022-09-13T01:59:42.475Z,63.16
2022-09-13T02:00:42.453Z,62.04
2022-09-13T02:01:42.467Z,67.19
2022-09-13T02:02:42.438Z,64.29
2022-09-13T02:03:42.501Z,63.33
2022-09-13T02:04:42.412Z,67.35
2022-09-13T02:05:42.414Z,66.55
2022-09-13T02:06:42.423Z,66.23
2022-09-13T02:07:42.469Z,67.84
2022-09-13T02:08:42.380Z,64.29
2022-09-13T02:09:42.380Z,69.61
2022-09-13T02:10:42.355Z,67.68
2022-09-13T02:12:14.274Z,63.81
2022-09-13T02:12:42.340Z,64.45
2022-09-13T02:13:42.346Z,63.97
2022-09-13T02:14:42.326Z,65.26
2022-09-13T02:15:42.315Z,66.55
2022-09-13T02:16:42.387Z,65.58
2022-09-13T02:17:42.292Z,65.90
2022-09-13T02:18:42.280Z,68.96
2022-09-13T02:19:42.277Z,65.26
2022-09-13T02:20:42.261Z,66.55
2022-09-13T02:21:42.273Z,66.23
2022-09-13T02:22:42.249Z,68.00
2022-09-13T02:23:42.266Z,68.00
2022-09-13T02:24:42.226Z,68.32
2022-09-13T02:25:42.221Z,65.58
2022-09-13T02:26:42.218Z,62.68
2022-09-13T02:27:42.198Z,62.68
2022-09-13T02:28:42.183Z,66.23
2022-09-13T02:29:42.175Z,66.71
2022-09-13T02:30:42.165Z,66.39
2022-09-13T02:31:42.194Z,67.84
2022-09-13T02:32:42.149Z,65.58
2022-09-13T02:33:42.182Z,63.81
2022-09-13T02:34:42.120Z,71.54
2022-09-13T02:35:42.100Z,67.19
2022-09-13T02:36:42.117Z,67.51
2022-09-13T02:37:42.101Z,65.10
2022-09-13T02:38:42.085Z,66.87
2022-09-13T02:39:42.143Z,68.64
2022-09-13T02:40:42.068Z,66.55
2022-09-13T02:41:42.076Z,68.16
2022-09-13T02:42:42.046Z,70.58
2022-09-13T02:43:42.171Z,67.35
2022-09-13T02:44:42.022Z,66.71
2022-09-13T02:45:42.064Z,67.51
2022-09-13T02:46:42.019Z,66.39
2022-09-13T02:47:41.991Z,69.93
2022-09-13T02:48:41.975Z,67.68
2022-09-13T02:49:41.976Z,65.26
2022-09-13T02:50:41.976Z,66.55
2022-09-13T02:51:41.962Z,66.71
2022-09-13T02:52:41.941Z,64.13
2022-09-13T02:53:41.939Z,65.42
2022-09-13T02:54:41.930Z,65.42
2022-09-13T02:55:41.919Z,66.87
2022-09-13T02:56:41.923Z,66.55
2022-09-13T02:57:41.895Z,64.61
2022-09-13T02:58:41.888Z,67.35
2022-09-13T02:59:41.883Z,65.58
2022-09-13T03:00:41.868Z,65.58
2022-09-13T03:01:41.875Z,67.03
2022-09-13T03:02:41.849Z,66.23
2022-09-13T03:03:41.838Z,67.84
2022-09-13T03:04:41.829Z,65.10
2022-09-13T03:05:41.841Z,66.39
2022-09-13T03:06:41.826Z,66.87
2022-09-13T03:07:41.788Z,67.84
2022-09-13T03:08:41.826Z,66.87
2022-09-13T03:09:41.777Z,67.68
2022-09-13T03:10:41.771Z,67.84
2022-09-13T03:11:41.781Z,65.58
2022-09-13T03:12:41.769Z,66.87
2022-09-13T03:13:41.736Z,64.13
2022-09-13T03:14:41.728Z,65.74
2022-09-13T03:15:41.709Z,65.58
2022-09-13T03:16:41.796Z,69.45
2022-09-13T03:17:41.694Z,68.16
2022-09-13T03:18:41.687Z,67.19
2022-09-13T03:19:41.673Z,66.87
2022-09-13T03:20:41.658Z,66.87
2022-09-13T03:21:41.661Z,67.68
2022-09-13T03:22:41.643Z,67.68
2022-09-13T03:23:41.630Z,66.71
2022-09-13T03:24:41.620Z,67.35
2022-09-13T03:25:41.614Z,67.84
2022-09-13T03:26:41.602Z,67.35
2022-09-13T03:27:41.602Z,66.23
2022-09-13T03:28:41.583Z,67.03
2022-09-13T03:29:41.570Z,66.71
2022-09-13T03:30:41.565Z,66.39
2022-09-13T03:31:41.626Z,67.19
2022-09-13T03:32:41.554Z,66.87
2022-09-13T03:33:41.531Z,66.06
2022-09-13T03:34:41.527Z,66.06
2022-09-13T03:35:41.515Z,66.23
2022-09-13T03:36:41.498Z,64.94
2022-09-13T03:37:41.504Z,66.71
2022-09-13T03:38:41.485Z,65.74
2022-09-13T03:39:41.531Z,65.26
2022-09-13T03:40:41.551Z,66.39
2022-09-13T03:41:41.454Z,67.51
2022-09-13T03:42:41.459Z,67.51
2022-09-13T03:43:41.428Z,66.39
2022-09-13T03:44:41.414Z,64.61
2022-09-13T03:45:41.500Z,67.84
2022-09-13T03:46:41.398Z,67.68
2022-09-13T03:47:41.406Z,66.87
2022-09-13T03:48:41.386Z,68.32
2022-09-13T03:49:41.369Z,67.84
2022-09-13T03:50:41.360Z,67.68
2022-09-13T03:51:41.360Z,67.35
2022-09-13T03:52:46.263Z,66.87
2022-09-13T03:53:43.336Z,66.39
2022-09-13T03:54:41.318Z,65.74
2022-09-13T03:55:41.311Z,67.35
2022-09-13T03:56:41.300Z,66.23
2022-09-13T03:57:41.301Z,68.64
2022-09-13T03:58:41.284Z,67.03
2022-09-13T03:59:41.265Z,67.84
2022-09-13T04:00:41.293Z,68.32
2022-09-13T04:01:41.243Z,67.19
2022-09-13T04:02:41.253Z,68.16
2022-09-13T04:03:41.245Z,66.23
2022-09-13T04:04:41.221Z,66.87
2022-09-13T04:05:41.213Z,67.84
2022-09-13T04:06:41.199Z,66.87
2022-09-13T04:07:41.198Z,66.71
2022-09-13T04:08:41.186Z,68.32
2022-09-13T04:09:41.170Z,67.19
2022-09-13T04:10:41.165Z,66.23
2022-09-13T04:11:41.159Z,67.19
2022-09-13T04:12:41.158Z,66.71
2022-09-13T04:13:41.137Z,67.35
2022-09-13T04:14:41.129Z,67.35
2022-09-13T04:15:41.141Z,68.48
2022-09-13T04:16:41.184Z,65.90
2022-09-13T04:17:41.115Z,66.39
2022-09-13T04:18:41.091Z,67.35
2022-09-13T04:19:41.070Z,68.16
2022-09-13T04:20:41.065Z,67.51
2022-09-13T04:21:41.057Z,68.16
2022-09-13T04:22:41.056Z,67.68
2022-09-13T04:23:41.036Z,67.84
2022-09-13T04:24:41.032Z,68.80
2022-09-13T04:25:41.020Z,68.00
2022-09-13T04:26:41.006Z,68.48
2022-09-13T04:27:41.004Z,68.64
2022-09-13T04:28:40.990Z,68.48
2022-09-13T04:29:40.984Z,68.64
2022-09-13T04:30:42.781Z,67.35
2022-09-13T04:31:42.003Z,67.84
2022-09-13T04:32:40.965Z,68.16
2022-09-13T04:33:40.940Z,70.58
2022-09-13T04:34:40.944Z,67.68
2022-09-13T04:35:40.921Z,68.16
2022-09-13T04:36:40.908Z,68.00
2022-09-13T04:37:40.916Z,67.68
2022-09-13T04:38:40.887Z,69.45
2022-09-13T04:39:40.929Z,68.48
2022-09-13T04:40:40.869Z,69.61
2022-09-13T04:41:40.864Z,68.64
2022-09-13T04:42:40.871Z,68.96
2022-09-13T04:43:40.832Z,68.48
2022-09-13T04:44:40.834Z,68.32
2022-09-13T04:45:40.879Z,71.22
2022-09-13T04:46:40.817Z,68.64
2022-09-13T04:47:40.805Z,68.32
2022-09-13T04:48:40.792Z,68.80
2022-09-13T04:49:40.777Z,68.32
2022-09-13T04:50:40.768Z,77.34
2022-09-13T04:51:40.760Z,67.68
2022-09-13T04:52:40.814Z,68.00
2022-09-13T04:53:40.751Z,68.00
2022-09-13T04:54:40.741Z,68.80
2022-09-13T04:55:40.727Z,68.64
2022-09-13T04:56:40.719Z,70.42
2022-09-13T04:57:40.729Z,67.68
2022-09-13T04:58:40.688Z,69.45
2022-09-13T04:59:40.686Z,67.51
2022-09-13T05:00:40.676Z,68.48
2022-09-13T05:01:40.790Z,71.38
2022-09-13T05:02:40.702Z,70.74
2022-09-13T05:03:40.642Z,69.13
2022-09-13T05:04:40.632Z,70.74
2022-09-13T05:05:40.627Z,69.45
2022-09-13T05:06:40.614Z,68.32
2022-09-13T05:07:40.617Z,68.16
2022-09-13T05:08:40.593Z,68.32
2022-09-13T05:09:40.588Z,67.68
2022-09-13T05:10:40.574Z,68.96
2022-09-13T05:11:40.568Z,68.00
2022-09-13T05:12:40.564Z,67.35
2022-09-13T05:13:40.541Z,68.80
2022-09-13T05:14:40.528Z,66.87
2022-09-13T05:15:40.547Z,69.13
2022-09-13T05:16:40.516Z,67.51
2022-09-13T05:17:40.520Z,69.29
2022-09-13T05:18:44.956Z,70.42
2022-09-13T05:19:41.562Z,68.16
2022-09-13T05:20:40.481Z,68.16
2022-09-13T05:21:40.460Z,69.13
2022-09-13T05:22:40.475Z,69.93
2022-09-13T05:23:40.444Z,68.96
2022-09-13T05:24:40.439Z,68.64
2022-09-13T05:25:40.425Z,70.09
2022-09-13T05:26:40.414Z,68.96
2022-09-13T05:27:40.419Z,69.13
2022-09-13T05:28:40.401Z,69.61
2022-09-13T05:29:40.396Z,71.87
2022-09-13T05:30:42.308Z,71.70
2022-09-13T05:31:41.371Z,70.25
2022-09-13T05:32:40.379Z,69.61
2022-09-13T05:33:40.396Z,69.61
2022-09-13T05:34:40.341Z,70.74
2022-09-13T05:35:40.396Z,69.29
2022-09-13T05:36:41.322Z,70.25
2022-09-13T05:37:40.318Z,70.90
2022-09-13T05:38:40.306Z,70.58
2022-09-13T05:40:00.652Z,70.74
2022-09-13T05:40:42.338Z,69.13
2022-09-13T05:41:41.260Z,70.09
2022-09-13T05:42:40.272Z,68.80
2022-09-13T05:43:40.250Z,69.77
2022-09-13T05:44:40.251Z,69.77
2022-09-13T05:45:40.221Z,68.64
2022-09-13T05:46:40.215Z,68.96
2022-09-13T05:47:40.226Z,69.45
2022-09-13T05:48:40.205Z,69.29
2022-09-13T05:49:55.475Z,68.96
2022-09-13T05:50:57.735Z,69.29
2022-09-13T05:51:42.175Z,70.42
2022-09-13T05:52:40.177Z,69.77
2022-09-13T05:53:40.157Z,70.42
2022-09-13T05:54:40.149Z,69.45
2022-09-13T05:55:40.135Z,70.09
2022-09-13T05:56:40.148Z,68.48
2022-09-13T05:57:40.110Z,68.80
2022-09-13T05:58:40.105Z,69.45
2022-09-13T05:59:40.109Z,68.48
2022-09-13T06:00:40.102Z,68.48
2022-09-13T06:01:40.106Z,68.16
2022-09-13T06:02:40.169Z,67.68
2022-09-13T06:03:40.070Z,68.00
2022-09-13T06:04:40.062Z,68.16
2022-09-13T06:05:40.046Z,68.16
2022-09-13T06:06:40.036Z,68.80
2022-09-13T06:07:40.117Z,68.80
2022-09-13T06:08:40.024Z,68.16
2022-09-13T06:09:40.009Z,67.84
2022-09-13T06:10:39.998Z,67.51
2022-09-13T06:11:39.994Z,68.16
2022-09-13T06:12:39.993Z,69.13
2022-09-13T06:13:39.976Z,67.84
2022-09-13T06:14:39.967Z,68.96
2022-09-13T06:15:43.202Z,66.87
2022-09-13T06:16:40.955Z,69.13
2022-09-13T06:17:39.947Z,68.00
2022-09-13T06:18:39.927Z,68.16
2022-09-13T06:19:39.907Z,68.16
2022-09-13T06:20:40.903Z,67.35
2022-09-13T06:21:39.885Z,67.35
2022-09-13T06:22:39.895Z,68.48
2022-09-13T06:23:39.876Z,67.51
2022-09-13T06:24:39.870Z,67.35
2022-09-13T06:25:39.858Z,67.51
2022-09-13T06:26:39.847Z,68.80
2022-09-13T06:27:39.855Z,69.77
2022-09-13T06:28:39.825Z,68.32
2022-09-13T06:29:39.812Z,67.84
2022-09-13T06:30:39.800Z,66.71
2022-09-13T06:31:39.823Z,66.71
2022-09-13T06:32:39.803Z,68.80
2022-09-13T06:33:39.781Z,66.87
2022-09-13T06:34:39.770Z,65.74
2022-09-13T06:35:39.754Z,67.35
2022-09-13T06:36:39.769Z,67.51
2022-09-13T06:37:39.756Z,66.87
2022-09-13T06:38:39.727Z,68.48
2022-09-13T06:39:39.809Z,68.64
2022-09-13T06:40:39.706Z,67.68
2022-09-13T06:41:39.691Z,68.00
2022-09-13T06:42:39.712Z,67.84
2022-09-13T06:43:39.679Z,68.32
2022-09-13T06:44:39.661Z,68.80
2022-09-13T06:45:39.657Z,69.13
2022-09-13T06:46:39.670Z,67.68
2022-09-13T06:47:39.632Z,68.16
2022-09-13T06:48:39.639Z,67.03
2022-09-13T06:49:39.615Z,68.00
2022-09-13T06:50:39.602Z,68.32
2022-09-13T06:51:39.600Z,72.51
2022-09-13T06:52:39.588Z,67.84
2022-09-13T06:53:39.595Z,68.48
2022-09-13T06:54:39.561Z,67.51
2022-09-13T06:55:39.554Z,66.55
2022-09-13T06:56:39.539Z,67.51
2022-09-13T06:57:39.536Z,68.00
2022-09-13T06:58:39.555Z,68.16
2022-09-13T06:59:39.522Z,67.51
2022-09-13T07:00:39.560Z,66.39
2022-09-13T07:01:39.644Z,69.45
2022-09-13T07:02:39.488Z,66.55
2022-09-13T07:03:39.494Z,68.00
2022-09-13T07:04:39.463Z,67.84
2022-09-13T07:05:39.459Z,66.23
2022-09-13T07:06:39.446Z,67.51
2022-09-13T07:07:39.435Z,66.71
2022-09-13T07:08:39.446Z,69.13
2022-09-13T07:09:39.414Z,68.80
2022-09-13T07:10:39.407Z,68.96
2022-09-13T07:11:39.470Z,68.00
2022-09-13T07:12:39.382Z,68.96
2022-09-13T07:13:39.394Z,69.29
2022-09-13T07:14:39.364Z,66.23
2022-09-13T07:15:39.441Z,67.35
2022-09-13T07:16:39.346Z,69.45
2022-09-13T07:17:39.332Z,66.06
2022-09-13T07:18:39.342Z,66.87
2022-09-13T07:19:39.319Z,67.51
2022-09-13T07:20:39.299Z,65.26
2022-09-13T07:21:39.303Z,68.00
2022-09-13T07:22:39.284Z,68.00
2022-09-13T07:23:39.307Z,67.35
2022-09-13T07:24:39.273Z,65.58
2022-09-13T07:25:39.258Z,66.06
2022-09-13T07:26:39.257Z,66.87
2022-09-13T07:27:39.237Z,68.16
2022-09-13T07:28:39.306Z,69.13
2022-09-13T07:29:39.214Z,65.42
2022-09-13T07:30:39.208Z,66.71
2022-09-13T07:31:39.195Z,66.87
2022-09-13T07:32:39.184Z,66.06
2022-09-13T07:33:39.195Z,66.23
2022-09-13T07:34:39.164Z,65.90
2022-09-13T07:35:39.158Z,66.87
2022-09-13T07:36:39.150Z,66.06
2022-09-13T07:37:39.133Z,67.51
2022-09-13T07:38:39.162Z,66.55
2022-09-13T07:39:39.122Z,67.51
2022-09-13T07:40:39.109Z,67.51
2022-09-13T07:41:39.092Z,65.74
2022-09-13T07:42:39.088Z,67.35
2022-09-13T07:43:39.096Z,68.16
2022-09-13T07:44:39.987Z,65.42
2022-09-13T07:45:40.077Z,66.39
2022-09-13T07:46:39.090Z,64.94
2022-09-13T07:47:39.039Z,66.55
2022-09-13T07:48:39.055Z,66.87
2022-09-13T07:49:39.023Z,66.23
2022-09-13T07:50:39.012Z,66.39
2022-09-13T07:51:39.007Z,64.61
2022-09-13T07:52:38.991Z,65.74
2022-09-13T07:53:39.005Z,64.29
2022-09-13T07:54:38.972Z,64.78
2022-09-13T07:55:38.968Z,66.87
2022-09-13T07:56:38.950Z,63.65
2022-09-13T07:57:38.933Z,64.13
2022-09-13T07:58:38.955Z,65.26
2022-09-13T07:59:38.997Z,63.33
2022-09-13T08:00:38.908Z,67.19
2022-09-13T08:01:39.052Z,66.06
2022-09-13T08:02:38.939Z,64.61
2022-09-13T08:03:38.918Z,64.94
2022-09-13T08:04:38.876Z,63.65
2022-09-13T08:05:38.852Z,65.10
2022-09-13T08:06:38.889Z,65.10
2022-09-13T08:07:38.850Z,66.55
2022-09-13T08:08:38.843Z,64.45
2022-09-13T08:09:38.813Z,65.26
2022-09-13T08:10:38.813Z,65.90
2022-09-13T08:11:38.800Z,66.23
2022-09-13T08:12:38.788Z,68.00
2022-09-13T08:14:10.708Z,65.26
2022-09-13T08:14:38.775Z,63.81
2022-09-13T08:15:38.799Z,66.23
2022-09-13T08:16:38.756Z,64.78
2022-09-13T08:17:38.744Z,64.94
2022-09-13T08:18:38.756Z,64.78
2022-09-13T08:19:38.727Z,66.55
2022-09-13T08:20:38.718Z,67.68
2022-09-13T08:21:38.703Z,66.71
2022-09-13T08:22:38.691Z,65.26
2022-09-13T08:23:38.710Z,67.51
2022-09-13T08:24:38.679Z,66.87
2022-09-13T08:25:38.676Z,64.61
2022-09-13T08:26:38.655Z,65.42
2022-09-13T08:27:38.652Z,67.68
2022-09-13T08:28:38.648Z,65.42
2022-09-13T08:29:38.629Z,64.29
2022-09-13T08:30:38.642Z,66.06
2022-09-13T08:31:38.705Z,65.90
2022-09-13T08:32:38.593Z,67.35
2022-09-13T08:33:41.051Z,64.78
2022-09-13T08:34:39.812Z,66.06
2022-09-13T08:35:38.591Z,66.06
2022-09-13T08:36:38.609Z,66.06
2022-09-13T08:37:38.556Z,64.13
2022-09-13T08:38:38.593Z,64.94
2022-09-13T08:39:38.592Z,66.39
2022-09-13T08:40:38.513Z,67.51
2022-09-13T08:41:38.523Z,66.71
2022-09-13T08:42:38.501Z,65.58
2022-09-13T08:43:38.617Z,67.03
2022-09-13T08:44:38.493Z,68.48
2022-09-13T08:45:38.465Z,68.00
2022-09-13T08:46:38.491Z,67.84
2022-09-13T08:47:38.544Z,66.39
2022-09-13T08:48:38.450Z,65.90
2022-09-13T08:49:38.429Z,66.55
2022-09-13T08:50:38.417Z,67.19
2022-09-13T08:51:38.415Z,66.87
2022-09-13T08:52:38.408Z,65.10
2022-09-13T08:53:38.510Z,66.06
2022-09-13T08:54:38.384Z,65.42
2022-09-13T08:55:38.370Z,64.78
2022-09-13T08:56:38.353Z,66.55
2022-09-13T08:57:38.345Z,67.03
2022-09-13T08:58:38.371Z,63.97
2022-09-13T08:59:38.330Z,64.94
2022-09-13T09:00:38.310Z,65.42
2022-09-13T09:01:38.333Z,65.10
2022-09-13T09:02:38.373Z,66.71
2022-09-13T09:03:38.357Z,65.10
2022-09-13T09:04:38.276Z,64.78
2022-09-13T09:05:38.280Z,65.26
2022-09-13T09:06:38.267Z,64.61
2022-09-13T09:07:38.241Z,66.39
2022-09-13T09:08:38.254Z,66.39
2022-09-13T09:09:38.227Z,66.55
2022-09-13T09:10:38.215Z,64.45
2022-09-13T09:11:38.204Z,64.94
2022-09-13T09:12:38.195Z,67.68
2022-09-13T09:13:38.232Z,64.94
2022-09-13T09:14:38.177Z,63.65
2022-09-13T09:15:38.209Z,65.74
2022-09-13T09:16:38.158Z,63.16
2022-09-13T09:17:38.160Z,63.81
2022-09-13T09:18:38.161Z,64.78
2022-09-13T09:19:38.119Z,62.68
2022-09-13T09:20:38.115Z,63.16
2022-09-13T09:21:38.108Z,63.33
2022-09-13T09:22:38.098Z,64.45
2022-09-13T09:23:38.179Z,64.13
2022-09-13T09:24:38.084Z,65.74
2022-09-13T09:25:38.073Z,66.23
2022-09-13T09:26:38.055Z,66.39
2022-09-13T09:27:38.037Z,63.97
2022-09-13T09:28:38.060Z,63.49
2022-09-13T09:29:38.029Z,65.26
2022-09-13T09:30:38.076Z,65.58
2022-09-13T09:31:37.997Z,63.65
2022-09-13T09:32:37.999Z,64.94
2022-09-13T09:33:38.049Z,67.51
2022-09-13T09:34:37.980Z,64.45
2022-09-13T09:35:37.958Z,66.87
2022-09-13T09:36:37.961Z,66.23
2022-09-13T09:37:38.008Z,65.74
2022-09-13T09:38:37.956Z,65.90
2022-09-13T09:39:37.936Z,64.61
2022-09-13T09:40:37.957Z,63.97
2022-09-13T09:41:37.918Z,65.26
2022-09-13T09:42:37.897Z,64.45
2022-09-13T09:43:38.001Z,64.61
2022-09-13T09:44:37.876Z,65.58
2022-09-13T09:45:37.872Z,63.81
2022-09-13T09:46:37.859Z,63.65
2022-09-13T09:47:37.844Z,63.81
2022-09-13T09:48:37.866Z,66.87
2022-09-13T09:49:37.827Z,71.38
2022-09-13T09:50:37.819Z,65.58
2022-09-13T09:51:37.814Z,63.16
2022-09-13T09:52:37.807Z,64.45
2022-09-13T09:53:37.897Z,63.65
2022-09-13T09:54:37.785Z,66.87
2022-09-13T09:55:37.852Z,64.45
2022-09-13T09:56:37.765Z,63.49
2022-09-13T09:57:37.759Z,61.71
2022-09-13T09:58:37.768Z,63.00
2022-09-13T09:59:37.737Z,63.16
2022-09-13T10:00:37.722Z,64.61
2022-09-13T10:01:37.785Z,63.00
2022-09-13T10:02:38.716Z,64.13
2022-09-13T10:03:37.766Z,65.10
2022-09-13T10:04:37.685Z,63.65
2022-09-13T10:05:37.689Z,62.52
2022-09-13T10:06:37.693Z,63.97
2022-09-13T10:07:37.638Z,62.36
2022-09-13T10:08:37.672Z,64.13
2022-09-13T10:09:37.646Z,62.20
2022-09-13T10:10:37.630Z,63.81
2022-09-13T10:11:37.628Z,63.65
2022-09-13T10:12:37.620Z,63.81
2022-09-13T10:13:37.620Z,64.78
2022-09-13T10:14:37.594Z,64.78
2022-09-13T10:15:37.591Z,64.78
2022-09-13T10:16:37.612Z,66.55
2022-09-13T10:17:37.564Z,64.94
2022-09-13T10:18:44.437Z,62.68
2022-09-13T10:19:39.542Z,65.90
2022-09-13T10:20:37.534Z,62.36
2022-09-13T10:21:37.556Z,68.16
2022-09-13T10:22:37.515Z,66.06
2022-09-13T10:23:37.518Z,65.74
2022-09-13T10:24:37.505Z,67.51
2022-09-13T10:25:37.488Z,63.97
2022-09-13T10:26:37.486Z,65.58
2022-09-13T10:27:37.465Z,63.81
2022-09-13T10:28:37.511Z,63.16
2022-09-13T10:29:37.465Z,70.74
2022-09-13T10:30:37.485Z,66.23
2022-09-13T10:31:37.436Z,70.25
2022-09-13T10:32:37.426Z,66.87
2022-09-13T10:33:37.433Z,67.19
2022-09-13T10:34:37.396Z,67.19
2022-09-13T10:35:37.394Z,65.74
2022-09-13T10:36:53.572Z,64.94
2022-09-13T10:37:39.369Z,63.65
2022-09-13T10:38:37.484Z,64.94
2022-09-13T10:39:37.341Z,62.36
2022-09-13T10:40:38.000Z,64.13
2022-09-13T10:41:37.335Z,62.36
2022-09-13T10:42:37.321Z,65.10
2022-09-13T10:43:37.330Z,63.65
2022-09-13T10:44:37.309Z,61.07
2022-09-13T10:45:37.305Z,60.10
2022-09-13T10:46:37.288Z,58.81
2022-09-13T10:47:37.285Z,62.04
2022-09-13T10:48:37.396Z,62.20
2022-09-13T10:49:37.269Z,61.07
2022-09-13T10:50:37.251Z,62.36
2022-09-13T10:51:37.238Z,63.33
2022-09-13T10:52:37.234Z,63.49
2022-09-13T10:53:37.255Z,62.36
2022-09-13T10:54:37.207Z,63.65
2022-09-13T10:55:37.209Z,62.84
2022-09-13T10:56:37.195Z,64.78
2022-09-13T10:57:37.182Z,64.13
2022-09-13T10:58:37.223Z,63.33
2022-09-13T10:59:37.178Z,66.71
2022-09-13T11:00:37.173Z,67.84
2022-09-13T11:01:40.412Z,61.55
2022-09-13T11:02:38.139Z,62.68
2022-09-13T11:03:37.156Z,63.16
2022-09-13T11:04:37.170Z,63.00
2022-09-13T11:05:37.109Z,61.39
2022-09-13T11:06:37.100Z,61.55
2022-09-13T11:07:37.088Z,60.91
2022-09-13T11:08:37.102Z,60.75
2022-09-13T11:09:37.071Z,61.39
2022-09-13T11:10:37.069Z,62.04
2022-09-13T11:11:37.124Z,59.46
2022-09-13T11:12:37.046Z,60.10
2022-09-13T11:13:37.064Z,61.23
2022-09-13T11:14:37.020Z,60.42
2022-09-13T11:15:37.010Z,61.87
2022-09-13T11:16:37.039Z,59.62
2022-09-13T11:17:36.998Z,60.10
2022-09-13T11:18:37.013Z,61.55
2022-09-13T11:19:36.975Z,61.07
2022-09-13T11:20:36.981Z,66.71
2022-09-13T11:21:36.953Z,61.23
2022-09-13T11:22:36.930Z,61.23
2022-09-13T11:23:36.948Z,62.68
2022-09-13T11:24:36.928Z,60.10
2022-09-13T11:25:36.909Z,62.04
2022-09-13T11:26:38.566Z,61.39
2022-09-13T11:27:36.897Z,61.87
2022-09-13T11:28:36.910Z,62.84
2022-09-13T11:29:36.874Z,61.87
2022-09-13T11:30:36.861Z,60.59
2022-09-13T11:31:36.982Z,60.75
2022-09-13T11:32:36.839Z,62.52
2022-09-13T11:33:36.858Z,63.65
2022-09-13T11:34:36.822Z,63.33
2022-09-13T11:35:36.819Z,62.84
2022-09-13T11:36:36.830Z,61.39
2022-09-13T11:37:36.799Z,61.87
2022-09-13T11:38:36.811Z,64.13
2022-09-13T11:39:36.774Z,61.71
2022-09-13T11:40:36.762Z,60.91
2022-09-13T11:41:36.757Z,63.16
2022-09-13T11:42:36.739Z,59.78
2022-09-13T11:43:36.788Z,60.10
2022-09-13T11:44:36.724Z,61.71
2022-09-13T11:45:36.720Z,61.39
2022-09-13T11:46:36.713Z,60.26
2022-09-13T11:47:36.702Z,60.59
2022-09-13T11:48:36.715Z,59.46
2022-09-13T11:49:36.674Z,60.75
2022-09-13T11:50:36.658Z,59.78
2022-09-13T11:51:36.659Z,62.68
2022-09-13T11:52:36.648Z,59.62
2022-09-13T11:53:36.659Z,61.71
2022-09-13T11:54:36.623Z,61.39
2022-09-13T11:55:36.615Z,62.20
2022-09-13T11:56:36.636Z,62.68
2022-09-13T11:57:36.636Z,62.36
2022-09-13T11:58:36.585Z,60.91
2022-09-13T11:59:36.611Z,63.00
2022-09-13T12:00:36.567Z,63.97
2022-09-13T12:01:36.552Z,61.87
2022-09-13T12:02:36.617Z,62.52
2022-09-13T12:03:36.558Z,58.49
2022-09-13T12:04:36.523Z,59.62
2022-09-13T12:05:36.523Z,60.59
2022-09-13T12:06:36.509Z,59.94
2022-09-13T12:07:36.506Z,61.71
2022-09-13T12:08:36.497Z,58.01
2022-09-13T12:09:36.494Z,60.10
2022-09-13T12:10:36.470Z,62.20
2022-09-13T12:11:36.464Z,60.91
2022-09-13T12:12:36.450Z,59.46
2022-09-13T12:13:36.474Z,60.10
2022-09-13T12:14:36.428Z,60.59
2022-09-13T12:15:36.421Z,61.55
2022-09-13T12:16:36.679Z,63.49
2022-09-13T12:17:36.410Z,63.65
2022-09-13T12:18:36.388Z,63.33
2022-09-13T12:19:36.395Z,62.52
2022-09-13T12:20:36.373Z,62.04
2022-09-13T12:21:36.361Z,62.36
2022-09-13T12:22:36.352Z,63.16
2022-09-13T12:23:36.378Z,62.68
2022-09-13T12:24:36.352Z,62.84
2022-09-13T12:25:36.326Z,62.04
2022-09-13T12:26:36.301Z,62.04
2022-09-13T12:27:39.764Z,63.49
2022-09-13T12:28:37.291Z,62.68
2022-09-13T12:29:36.306Z,62.68
2022-09-13T12:30:36.268Z,62.52
2022-09-13T12:31:36.279Z,63.16
2022-09-13T12:32:36.256Z,62.04
2022-09-13T12:33:36.247Z,62.36
2022-09-13T12:34:36.253Z,62.20
2022-09-13T12:35:36.226Z,63.81
2022-09-13T12:36:37.221Z,62.52
2022-09-13T12:37:36.209Z,64.45
2022-09-13T12:38:36.204Z,63.16
2022-09-13T12:39:36.203Z,63.33
2022-09-13T12:40:36.189Z,64.45
2022-09-13T12:41:36.167Z,62.68
2022-09-13T12:42:36.167Z,62.84
2022-09-13T12:43:36.154Z,61.55
2022-09-13T12:44:36.167Z,61.87
2022-09-13T12:45:36.169Z,62.68
2022-09-13T12:46:36.113Z,62.36
2022-09-13T12:47:36.115Z,62.20
2022-09-13T12:48:36.104Z,62.84
2022-09-13T12:49:36.126Z,61.39
2022-09-13T12:50:43.411Z,63.33
2022-09-13T12:51:38.071Z,63.65
2022-09-13T12:52:36.065Z,59.78
2022-09-13T12:53:36.065Z,60.59
2022-09-13T12:54:36.062Z,60.59
2022-09-13T12:55:46.929Z,61.39